Time;durP1;ratioP1;P1;durP2;ratioP2;P2;SDS_P1;SDS_P2;PMS_P1;PMS_P2;Temp;Humidity;BMP_temperature;BMP_pressure;BME280_temperature;BME280_humidity;BME280_pressure;Samples;Min_cycle;Max_cycle;Signal;HPM_P1;HPM_P2
2023/07/02 00:00:08;;;;;;;12.02;10.13;;;17.00;99.90;;;;;;5094376;28;20078;-69
2023/07/02 00:02:34;;;;;;;13.27;9.50;;;17.00;99.90;;;;;;5094765;28;20543;-69
2023/07/02 00:04:59;;;;;;;14.55;9.38;;;17.00;99.90;;;;;;5094712;28;20028;-69
2023/07/02 00:07:26;;;;;;;12.90;10.27;;;17.00;99.90;;;;;;5094411;28;20024;-69
2023/07/02 00:09:52;;;;;;;12.02;9.60;;;17.00;99.90;;;;;;5094478;28;20115;-69
2023/07/02 00:12:17;;;;;;;14.57;10.85;;;17.00;99.90;;;;;;5094174;28;20114;-69
2023/07/02 00:14:43;;;;;;;11.55;10.40;;;17.00;99.90;;;;;;5094482;28;20040;-69
2023/07/02 00:17:12;;;;;;;11.90;10.07;;;17.00;99.90;;;;;;5094479;28;20481;-69
2023/07/02 00:19:41;;;;;;;17.52;10.75;;;16.90;99.90;;;;;;5094061;28;20048;-69
2023/07/02 00:22:08;;;;;;;12.75;9.63;;;16.90;99.90;;;;;;5094397;28;20383;-69
2023/07/02 00:24:34;;;;;;;15.00;10.82;;;16.90;99.90;;;;;;5094369;28;20020;-69
2023/07/02 00:27:00;;;;;;;12.02;9.95;;;16.90;99.90;;;;;;5093810;28;20016;-69
2023/07/02 00:29:25;;;;;;;11.38;9.73;;;16.90;99.90;;;;;;5093239;28;20397;-69
2023/07/02 00:31:51;;;;;;;13.82;10.43;;;16.90;99.90;;;;;;5094114;28;20031;-69
2023/07/02 00:34:18;;;;;;;16.15;10.85;;;16.90;99.90;;;;;;5094154;28;20028;-69
2023/07/02 00:36:44;;;;;;;14.02;9.60;;;16.90;99.90;;;;;;5094125;28;20111;-69
2023/07/02 00:39:11;;;;;;;14.05;10.43;;;16.90;99.90;;;;;;5093868;28;20103;-69
2023/07/02 00:41:37;;;;;;;12.80;10.10;;;16.90;99.90;;;;;;5094101;28;20031;-69
2023/07/02 00:44:02;;;;;;;12.65;9.70;;;16.90;99.90;;;;;;5094197;28;20470;-69
2023/07/02 00:46:28;;;;;;;16.23;10.80;;;16.90;99.90;;;;;;5093892;28;20056;-69
2023/07/02 00:48:55;;;;;;;11.90;9.90;;;16.90;99.90;;;;;;5093847;28;20032;-69
2023/07/02 00:51:23;;;;;;;15.32;9.98;;;16.90;99.90;;;;;;5093888;28;20500;-69
2023/07/02 00:53:51;;;;;;;15.43;10.02;;;16.80;99.90;;;;;;5093824;28;20440;-69
2023/07/02 00:56:17;;;;;;;15.27;9.80;;;16.90;99.90;;;;;;5093806;28;20028;-69
2023/07/02 00:58:48;;;;;;;15.18;10.18;;;16.90;99.90;;;;;;5093580;28;20115;-69
2023/07/02 01:01:16;;;;;;;13.60;9.13;;;16.90;99.90;;;;;;5093350;28;20051;-69
2023/07/02 01:03:59;;;;;;;11.10;9.73;;;16.90;99.90;;;;;;5093211;28;20038;-69
2023/07/02 01:06:27;;;;;;;20.08;9.43;;;16.80;99.90;;;;;;5093704;28;20016;-69
2023/07/02 01:08:55;;;;;;;11.15;8.63;;;16.90;99.90;;;;;;5093541;28;20035;-69
2023/07/02 01:11:25;;;;;;;11.95;8.77;;;16.80;99.90;;;;;;5093576;28;20478;-69
2023/07/02 01:13:53;;;;;;;11.90;8.85;;;16.80;99.90;;;;;;5093486;28;20131;-69
2023/07/02 01:16:20;;;;;;;14.43;8.63;;;16.80;99.90;;;;;;5093368;28;20039;-69
2023/07/02 01:18:45;;;;;;;11.55;8.40;;;16.80;99.90;;;;;;5093120;28;20055;-69
2023/07/02 01:21:11;;;;;;;13.05;9.32;;;16.80;99.90;;;;;;5093553;28;20477;-69
2023/07/02 01:23:37;;;;;;;12.73;8.20;;;16.80;99.90;;;;;;5093538;28;20113;-69
2023/07/02 01:26:02;;;;;;;12.32;8.93;;;16.80;99.90;;;;;;5093465;28;20067;-69
2023/07/02 01:28:36;;;;;;;13.18;8.88;;;16.80;99.90;;;;;;5093433;28;20034;-69
2023/07/02 01:31:05;;;;;;;12.07;8.48;;;16.90;99.90;;;;;;5093514;28;20024;-70
2023/07/02 01:33:31;;;;;;;17.10;9.05;;;16.80;99.90;;;;;;5093570;28;20039;-69
2023/07/02 01:35:56;;;;;;;13.38;8.63;;;16.80;99.90;;;;;;5093365;28;20028;-69
2023/07/02 01:38:22;;;;;;;12.77;8.95;;;16.80;99.90;;;;;;5093262;28;20039;-69
2023/07/02 01:40:47;;;;;;;13.38;9.05;;;16.80;99.90;;;;;;5095384;28;20032;-69
2023/07/02 01:43:13;;;;;;;14.48;9.23;;;16.80;99.90;;;;;;5097390;28;20020;-69
2023/07/02 01:45:40;;;;;;;15.25;9.88;;;16.80;99.90;;;;;;5097336;28;20031;-70
2023/07/02 01:48:06;;;;;;;14.15;8.98;;;16.70;99.90;;;;;;5097010;28;20028;-69
2023/07/02 01:50:31;;;;;;;15.45;8.57;;;16.70;99.90;;;;;;5097355;28;20028;-69
2023/07/02 01:52:57;;;;;;;14.57;9.07;;;16.60;99.90;;;;;;5096709;28;20031;-69
2023/07/02 01:55:23;;;;;;;13.43;8.50;;;16.60;99.90;;;;;;5097169;28;20043;-69
2023/07/02 01:57:48;;;;;;;16.92;8.25;;;16.60;99.90;;;;;;5096989;28;20027;-69
2023/07/02 02:00:14;;;;;;;13.10;8.98;;;16.50;99.90;;;;;;5096842;28;20051;-69
2023/07/02 02:02:39;;;;;;;15.90;8.75;;;16.60;99.90;;;;;;5096987;28;20036;-69
2023/07/02 02:05:05;;;;;;;16.85;8.52;;;16.60;99.90;;;;;;5097049;28;20024;-69
2023/07/02 02:07:32;;;;;;;18.08;9.00;;;16.60;99.90;;;;;;5097203;28;20385;-70
2023/07/02 02:09:57;;;;;;;12.70;8.07;;;16.50;99.90;;;;;;5096886;28;20035;-69
2023/07/02 02:12:23;;;;;;;15.15;8.40;;;16.60;99.90;;;;;;5096769;28;20035;-69
2023/07/02 02:14:49;;;;;;;16.15;8.57;;;16.50;99.90;;;;;;5096622;28;20077;-69
2023/07/02 02:17:14;;;;;;;13.25;8.07;;;16.60;99.90;;;;;;5096679;28;20032;-69
2023/07/02 02:19:40;;;;;;;17.60;8.57;;;16.60;99.90;;;;;;5096132;28;20464;-69
2023/07/02 02:22:05;;;;;;;14.90;8.10;;;16.70;99.90;;;;;;5096773;28;20032;-69
2023/07/02 02:24:31;;;;;;;14.93;7.88;;;16.70;99.90;;;;;;5096477;28;20051;-69
2023/07/02 02:26:56;;;;;;;15.10;8.07;;;16.70;99.90;;;;;;5096527;28;20031;-69
2023/07/02 02:29:22;;;;;;;12.18;7.65;;;16.70;99.90;;;;;;5096486;28;20505;-70
2023/07/02 02:31:47;;;;;;;11.35;7.65;;;16.60;99.90;;;;;;5096502;28;20178;-69
2023/07/02 02:34:13;;;;;;;13.02;7.47;;;16.60;99.90;;;;;;5096356;28;20568;-69
2023/07/02 02:36:38;;;;;;;14.80;8.00;;;16.70;99.90;;;;;;5096495;28;20036;-69
2023/07/02 02:39:04;;;;;;;14.25;8.13;;;16.60;99.90;;;;;;5096249;28;20027;-69
2023/07/02 02:41:30;;;;;;;14.57;8.30;;;16.60;99.90;;;;;;5096276;28;20478;-70
2023/07/02 02:43:56;;;;;;;13.93;7.95;;;16.60;99.90;;;;;;5096254;28;20034;-69
2023/07/02 02:46:22;;;;;;;14.77;8.40;;;16.60;99.90;;;;;;5096242;28;20028;-70
2023/07/02 02:48:48;;;;;;;14.88;8.07;;;16.60;98.10;;;;;;5096047;28;20132;-69
2023/07/02 02:51:14;;;;;;;13.77;8.48;;;16.60;97.90;;;;;;5095755;28;20039;-69
2023/07/02 02:53:39;;;;;;;15.40;8.00;;;16.70;99.30;;;;;;5095732;28;20028;-70
2023/07/02 02:56:05;;;;;;;14.75;8.48;;;16.60;97.60;;;;;;5095937;28;20035;-69
2023/07/02 02:58:30;;;;;;;15.70;8.75;;;16.60;97.00;;;;;;5095700;28;20035;-70
2023/07/02 03:00:56;;;;;;;12.60;7.95;;;16.60;96.90;;;;;;5095868;28;20024;-69
2023/07/02 03:03:24;;;;;;;14.20;8.45;;;16.60;96.50;;;;;;5095852;28;20385;-70
2023/07/02 03:05:50;;;;;;;14.27;8.30;;;16.60;96.20;;;;;;5095797;28;20024;-70
2023/07/02 03:08:15;;;;;;;13.38;7.43;;;16.60;96.20;;;;;;5095321;28;20024;-69
2023/07/02 03:10:41;;;;;;;14.77;8.00;;;16.60;95.50;;;;;;5095716;28;20359;-70
2023/07/02 03:13:07;;;;;;;19.02;9.48;;;16.60;93.90;;;;;;5095274;28;20020;-69
2023/07/02 03:15:32;;;;;;;17.55;8.52;;;16.60;94.20;;;;;;5095535;28;20035;-69
2023/07/02 03:17:58;;;;;;;16.98;8.32;;;16.60;91.10;;;;;;5094878;28;20028;-69
2023/07/02 03:20:24;;;;;;;14.70;8.40;;;16.60;91.50;;;;;;5095304;28;20090;-69
2023/07/02 03:22:49;;;;;;;17.27;9.13;;;16.60;84.40;;;;;;5095439;28;20024;-69
2023/07/02 03:25:15;;;;;;;17.30;9.27;;;16.60;90.00;;;;;;5095408;28;20025;-69
2023/07/02 03:27:41;;;;;;;17.05;8.88;;;16.60;83.20;;;;;;5094954;28;20043;-69
2023/07/02 03:30:07;;;;;;;15.93;9.27;;;16.60;89.50;;;;;;5095309;28;20032;-69
2023/07/02 03:32:33;;;;;;;20.77;9.27;;;16.60;86.60;;;;;;5095270;28;20051;-69
2023/07/02 03:34:58;;;;;;;16.77;9.45;;;16.50;79.20;;;;;;5095109;28;20020;-69
2023/07/02 03:37:24;;;;;;;23.48;9.85;;;16.50;77.40;;;;;;5095138;28;20543;-69
2023/07/02 03:39:49;;;;;;;20.10;9.20;;;16.50;78.30;;;;;;5094920;28;20035;-69
2023/07/02 03:42:16;;;;;;;19.38;10.70;;;16.50;81.60;;;;;;5095159;28;20049;-69
2023/07/02 03:44:41;;;;;;;19.60;10.10;;;16.50;81.00;;;;;;5095161;28;20046;-69
2023/07/02 03:47:08;;;;;;;19.27;11.07;;;16.50;78.60;;;;;;5095197;28;20024;-69
2023/07/02 03:49:34;;;;;;;19.42;10.43;;;16.50;78.90;;;;;;5095070;28;20024;-69
2023/07/02 03:51:59;;;;;;;25.27;12.75;;;16.50;77.00;;;;;;5094776;28;20393;-69
2023/07/02 03:54:25;;;;;;;22.38;11.70;;;16.50;68.60;;;;;;5094682;28;20032;-69
2023/07/02 03:56:50;;;;;;;23.08;13.32;;;16.60;74.60;;;;;;5094838;28;20050;-69
2023/07/02 03:59:16;;;;;;;23.83;12.50;;;16.60;65.70;;;;;;5094591;28;20393;-69
2023/07/02 04:01:42;;;;;;;23.88;12.90;;;16.50;72.20;;;;;;5094744;28;20028;-69
2023/07/02 04:04:08;;;;;;;23.55;11.95;;;16.50;68.30;;;;;;5093840;28;20081;-69
2023/07/02 04:06:34;;;;;;;26.05;12.35;;;16.50;69.80;;;;;;5094640;28;20028;-69
2023/07/02 04:08:59;;;;;;;23.20;13.00;;;16.50;69.40;;;;;;5094618;28;20080;-69
2023/07/02 04:11:25;;;;;;;22.75;12.40;;;16.40;74.00;;;;;;5094531;28;20541;-69
2023/07/02 04:13:50;;;;;;;22.60;12.65;;;16.40;77.30;;;;;;5094404;28;20032;-70
2023/07/02 04:16:16;;;;;;;24.02;12.63;;;16.40;66.50;;;;;;5094503;28;20036;-69
2023/07/02 04:18:41;;;;;;;23.70;12.30;;;16.40;67.30;;;;;;5093984;28;20118;-69
2023/07/02 04:21:07;;;;;;;24.35;12.65;;;16.50;59.50;;;;;;5094299;28;20024;-69
2023/07/02 04:23:32;;;;;;;21.13;12.85;;;16.50;59.40;;;;;;5094220;28;20054;-69
2023/07/02 04:25:58;;;;;;;23.05;12.35;;;16.40;53.80;;;;;;5094256;28;20431;-69
2023/07/02 04:28:23;;;;;;;20.80;12.82;;;16.50;56.90;;;;;;5094317;28;20409;-69
2023/07/02 04:30:51;;;;;;;29.40;12.32;;;16.50;54.80;;;;;;5094148;28;20032;-69
2023/07/02 04:33:17;;;;;;;22.30;12.25;;;16.50;50.60;;;;;;5094109;28;20432;-69
2023/07/02 04:35:43;;;;;;;24.83;12.35;;;16.60;43.10;;;;;;5093776;28;20027;-69
2023/07/02 04:38:08;;;;;;;20.73;11.20;;;16.60;37.90;;;;;;5093532;28;20024;-69
2023/07/02 04:40:34;;;;;;;23.23;11.30;;;16.70;31.10;;;;;;5094110;28;20107;-69
2023/07/02 04:42:59;;;;;;;24.83;11.10;;;17.00;12.40;;;;;;5093919;28;20025;-70
2023/07/02 04:45:26;;;;;;;24.00;10.75;;;17.10;1.00;;;;;;5093882;28;20030;-69
2023/07/02 04:47:52;;;;;;;21.58;10.90;;;17.20;1.00;;;;;;5093545;28;20059;-70
2023/07/02 04:50:18;;;;;;;22.25;11.45;;;17.50;1.00;;;;;;5093459;28;20077;-69
2023/07/02 04:52:44;;;;;;;28.65;11.45;;;17.50;1.00;;;;;;5093807;28;20024;-69
2023/07/02 04:55:10;;;;;;;25.25;11.32;;;17.20;1.00;;;;;;5093950;28;20385;-69
2023/07/02 04:57:36;;;;;;;24.35;11.57;;;17.20;1.00;;;;;;5093849;28;20477;-69
2023/07/02 05:00:03;;;;;;;20.67;11.13;;;17.00;1.00;;;;;;5093394;28;20028;-69
2023/07/02 05:02:29;;;;;;;29.55;10.82;;;16.90;1.00;;;;;;5093649;28;20036;-69
2023/07/02 05:04:54;;;;;;;22.27;11.00;;;16.80;1.00;;;;;;5093676;28;20077;-69
2023/07/02 05:07:20;;;;;;;23.08;10.35;;;16.80;1.00;;;;;;5093647;28;20077;-69
2023/07/02 05:09:45;;;;;;;23.88;10.27;;;16.80;1.00;;;;;;5093695;28;20040;-69
2023/07/02 05:12:11;;;;;;;24.00;10.73;;;16.80;1.00;;;;;;5093564;28;20119;-69
2023/07/02 05:14:36;;;;;;;26.50;10.85;;;16.90;1.00;;;;;;5093413;28;20063;-69
2023/07/02 05:17:03;;;;;;;23.90;10.55;;;16.90;1.00;;;;;;5093433;28;20064;-69
2023/07/02 05:19:28;;;;;;;26.83;10.48;;;16.90;1.00;;;;;;5092963;28;20095;-69
2023/07/02 05:21:54;;;;;;;21.60;9.70;;;17.00;1.00;;;;;;5093395;28;20474;-69
2023/07/02 05:24:20;;;;;;;21.70;10.10;;;16.90;1.00;;;;;;5093479;28;20455;-69
2023/07/02 05:26:46;;;;;;;25.90;10.82;;;16.90;1.00;;;;;;5093402;28;20020;-69
2023/07/02 05:29:11;;;;;;;24.08;9.77;;;16.90;1.00;;;;;;5093478;28;20489;-70
2023/07/02 05:31:37;;;;;;;19.52;9.23;;;16.80;99.90;;;;;;5093017;28;20028;-69
2023/07/02 05:34:02;;;;;;;21.00;9.23;;;17.00;1.00;;;;;;5092921;28;20035;-70
2023/07/02 05:36:28;;;;;;;31.10;11.63;;;17.00;99.90;;;;;;5093103;28;20040;-69
2023/07/02 05:38:53;;;;;;;19.65;9.73;;;17.00;99.90;;;;;;5093177;28;20042;-69
2023/07/02 05:41:19;;;;;;;23.20;9.90;;;17.10;99.90;;;;;;5093355;28;20055;-69
2023/07/02 05:43:45;;;;;;;21.65;10.65;;;17.10;99.90;;;;;;5093140;28;20031;-69
2023/07/02 05:46:12;;;;;;;22.75;9.48;;;17.20;99.90;;;;;;5093284;28;20028;-69
2023/07/02 05:48:37;;;;;;;22.38;9.60;;;17.30;99.90;;;;;;5093171;28;20043;-70
2023/07/02 05:51:03;;;;;;;19.98;9.68;;;17.90;99.90;;;;;;5093008;28;20036;-69
2023/07/02 05:53:28;;;;;;;19.17;8.95;;;18.40;99.90;;;;;;5093106;28;20028;-69
2023/07/02 05:55:54;;;;;;;25.73;9.77;;;18.40;99.90;;;;;;5092795;28;20482;-70
2023/07/02 05:58:19;;;;;;;22.77;9.00;;;18.30;99.90;;;;;;5093058;28;20032;-69
2023/07/02 06:00:49;;;;;;;28.35;9.55;;;18.40;29.20;;;;;;5093100;28;20035;-70
2023/07/02 06:03:19;;;;;;;21.88;8.93;;;18.20;1.00;;;;;;5093187;28;20168;-70
2023/07/02 06:05:47;;;;;;;21.08;8.82;;;18.60;1.00;;;;;;5093154;28;20478;-70
2023/07/02 06:08:13;;;;;;;17.02;8.52;;;19.10;99.90;;;;;;5093169;28;20024;-69
2023/07/02 06:10:38;;;;;;;19.70;8.32;;;19.00;1.00;;;;;;5093028;28;20028;-70
2023/07/02 06:13:04;;;;;;;27.95;9.80;;;18.90;17.10;;;;;;5093035;28;20034;-70
2023/07/02 06:15:29;;;;;;;24.70;10.15;;;18.80;99.90;;;;;;5093008;28;20393;-69
2023/07/02 06:17:55;;;;;;;23.63;9.82;;;18.60;99.90;;;;;;5092356;28;20536;-70
2023/07/02 06:20:20;;;;;;;21.55;8.95;;;18.30;99.90;;;;;;5092640;28;20439;-69
2023/07/02 06:22:46;;;;;;;18.75;9.27;;;18.50;99.90;;;;;;5092993;28;20035;-70
2023/07/02 06:25:11;;;;;;;22.92;9.50;;;19.30;99.90;;;;;;5092860;28;20453;-72
2023/07/02 06:27:37;;;;;;;24.52;10.40;;;19.40;1.00;;;;;;5096209;28;20068;-69
2023/07/02 06:30:03;;;;;;;19.80;9.02;;;19.60;1.00;;;;;;5096303;28;20039;-69
2023/07/02 06:32:28;;;;;;;28.70;10.43;;;19.80;99.90;;;;;;5096387;28;20032;-68
2023/07/02 06:34:54;;;;;;;25.10;12.18;;;19.50;99.90;;;;;;5096486;28;20035;-69
2023/07/02 06:37:19;;;;;;;28.00;12.75;;;19.50;99.90;;;;;;5096099;28;20066;-71
2023/07/02 06:39:45;;;;;;;25.40;12.13;;;20.10;1.00;;;;;;5096128;28;20036;-70
2023/07/02 06:42:10;;;;;;;22.23;12.15;;;20.20;1.00;;;;;;5096393;28;20016;-69
2023/07/02 06:44:36;;;;;;;27.17;11.52;;;21.00;99.90;;;;;;5096404;28;20078;-70
2023/07/02 06:47:01;;;;;;;28.95;14.95;;;21.50;99.90;;;;;;5096099;28;20024;-69
2023/07/02 06:49:27;;;;;;;23.23;13.57;;;21.00;1.00;;;;;;5095679;28;20038;-69
2023/07/02 06:51:52;;;;;;;29.15;14.90;;;20.60;99.90;;;;;;5095703;28;20040;-69
2023/07/02 06:54:18;;;;;;;33.58;19.08;;;20.70;99.90;;;;;;5096105;28;20032;-70
2023/07/02 06:56:43;;;;;;;33.33;18.67;;;19.70;99.90;;;;;;5096054;28;20393;-69
2023/07/02 06:59:09;;;;;;;32.55;16.30;;;18.90;99.90;;;;;;5095959;28;20085;-69
2023/07/02 07:01:36;;;;;;;32.88;15.45;;;19.40;99.90;;;;;;5095844;28;20523;-69
2023/07/02 07:04:02;;;;;;;29.08;15.65;;;19.20;1.00;;;;;;5095810;28;20390;-69
2023/07/02 07:06:29;;;;;;;29.95;14.98;;;18.90;35.90;;;;;;5095664;28;20026;-69
2023/07/02 07:08:54;;;;;;;30.42;14.35;;;19.60;5.00;;;;;;5095764;28;20504;-70
2023/07/02 07:11:20;;;;;;;26.50;13.60;;;20.30;99.90;;;;;;5095761;28;20032;-69
2023/07/02 07:13:45;;;;;;;29.50;13.57;;;19.60;99.90;;;;;;5095781;28;20059;-70
2023/07/02 07:16:11;;;;;;;31.05;13.32;;;19.10;99.90;;;;;;5095631;28;20034;-70
2023/07/02 07:18:37;;;;;;;29.83;12.13;;;18.90;99.90;;;;;;5095268;28;20105;-70
2023/07/02 07:21:02;;;;;;;27.80;12.32;;;19.20;1.00;;;;;;5095113;28;20024;-69
2023/07/02 07:23:28;;;;;;;27.83;11.77;;;19.20;99.90;;;;;;5095512;28;20035;-70
2023/07/02 07:25:53;;;;;;;28.95;12.35;;;19.70;99.90;;;;;;5095444;28;20028;-70
2023/07/02 07:28:19;;;;;;;24.85;11.35;;;20.70;99.90;;;;;;5095277;28;20031;-70
2023/07/02 07:30:44;;;;;;;26.70;11.50;;;21.10;1.00;;;;;;5095405;28;20070;-69
2023/07/02 07:33:10;;;;;;;24.73;11.18;;;21.50;1.00;;;;;;5095258;28;20050;-70
2023/07/02 07:35:36;;;;;;;25.83;11.30;;;21.90;99.90;;;;;;5095360;28;20470;-70
2023/07/02 07:38:02;;;;;;;23.35;11.43;;;22.20;1.00;;;;;;5095202;28;20028;-70
2023/07/02 07:40:28;;;;;;;23.45;11.05;;;22.40;1.00;;;;;;5094795;28;20504;-70
2023/07/02 07:42:53;;;;;;;20.58;10.77;;;21.00;99.90;;;;;;5094650;28;20024;-69
2023/07/02 07:45:19;;;;;;;21.50;11.10;;;21.50;99.90;;;;;;5094643;28;20434;-69
2023/07/02 07:47:44;;;;;;;22.23;11.60;;;22.40;1.00;;;;;;5095044;28;20035;-69
2023/07/02 07:50:10;;;;;;;23.88;10.98;;;22.40;1.00;;;;;;5094608;28;20021;-69
2023/07/02 07:52:43;;;;;;;21.08;10.35;;;21.80;99.90;;;;;;5095007;28;20085;-69
2023/07/02 07:55:09;;;;;;;25.88;10.85;;;20.60;99.90;;;;;;5095005;28;20115;-69
2023/07/02 07:57:36;;;;;;;21.13;11.63;;;20.80;99.90;;;;;;5094337;28;20085;-69
2023/07/02 08:00:04;;;;;;;24.48;11.80;;;21.20;99.90;;;;;;5094645;28;20032;-69
2023/07/02 08:02:29;;;;;;;23.60;11.65;;;20.30;99.90;;;;;;5094690;28;20389;-69
2023/07/02 08:04:55;;;;;;;27.55;11.00;;;20.30;99.90;;;;;;5094674;28;20027;-70
2023/07/02 08:07:20;;;;;;;22.58;11.60;;;20.90;99.90;;;;;;5094266;28;20023;-69
2023/07/02 08:09:46;;;;;;;23.88;11.20;;;20.30;1.00;;;;;;5094655;28;20035;-69
2023/07/02 08:12:11;;;;;;;24.98;11.65;;;20.30;1.00;;;;;;5094325;28;20489;-69
2023/07/02 08:14:37;;;;;;;22.27;10.68;;;21.50;1.00;;;;;;5094614;28;20081;-70
2023/07/02 08:17:03;;;;;;;20.55;10.88;;;21.30;1.00;;;;;;5094303;28;20103;-69
2023/07/02 08:19:28;;;;;;;21.13;10.57;;;21.60;99.90;;;;;;5093987;28;20052;-69
2023/07/02 08:21:54;;;;;;;21.98;11.63;;;22.30;99.90;;;;;;5094464;28;20048;-70
2023/07/02 08:24:19;;;;;;;23.75;11.50;;;22.80;1.00;;;;;;5094337;28;20035;-70
2023/07/02 08:26:45;;;;;;;29.35;11.68;;;22.40;1.00;;;;;;5094307;28;20054;-70
2023/07/02 08:29:10;;;;;;;23.58;10.65;;;21.20;1.00;;;;;;5093892;28;20024;-70
2023/07/02 08:31:36;;;;;;;26.05;11.75;;;21.30;10.60;;;;;;5094158;28;20038;-70
2023/07/02 08:34:02;;;;;;;23.70;12.10;;;20.90;1.00;;;;;;5094141;28;20070;-70
2023/07/02 08:36:28;;;;;;;23.33;11.93;;;21.00;12.70;;;;;;5094094;28;20530;-70
2023/07/02 08:38:53;;;;;;;22.98;11.07;;;20.80;89.80;;;;;;5093947;28;20024;-69
2023/07/02 08:41:20;;;;;;;23.73;11.98;;;20.50;1.00;;;;;;5094013;28;20020;-70
2023/07/02 08:43:48;;;;;;;26.98;12.10;;;20.40;1.00;;;;;;5093665;28;20028;-70
2023/07/02 08:46:15;;;;;;;24.85;11.75;;;20.60;1.00;;;;;;5094081;28;20020;-70
2023/07/02 08:48:40;;;;;;;24.38;10.52;;;20.70;1.00;;;;;;5093629;28;20032;-70
2023/07/02 08:51:06;;;;;;;21.45;10.55;;;20.80;1.00;;;;;;5093856;28;20085;-70
2023/07/02 08:53:33;;;;;;;22.40;11.23;;;21.30;1.00;;;;;;5093355;28;20494;-70
2023/07/02 08:55:59;;;;;;;23.55;10.75;;;22.10;1.00;;;;;;5093745;28;20024;-70
2023/07/02 08:58:25;;;;;;;24.13;11.18;;;21.20;1.00;;;;;;5093732;28;20538;-69
2023/07/02 09:01:11;;;;;;;23.85;11.63;;;20.80;1.00;;;;;;5093794;28;20024;-70
2023/07/02 09:03:38;;;;;;;28.13;11.13;;;20.40;1.00;;;;;;5093763;28;20478;-70
2023/07/02 09:06:05;;;;;;;22.67;10.60;;;20.10;1.00;;;;;;5093633;28;20074;-69
2023/07/02 09:08:33;;;;;;;24.83;10.50;;;20.00;1.00;;;;;;5093554;28;20020;-70
2023/07/02 09:11:08;;;;;;;23.17;10.35;;;20.10;6.50;;;;;;5093225;28;20042;-69
2023/07/02 09:13:58;;;;;;;22.70;11.05;;;20.00;70.20;;;;;;5093521;28;20024;-70
2023/07/02 09:16:27;;;;;;;21.63;10.07;;;20.20;99.90;;;;;;5093537;28;20054;-69
2023/07/02 09:19:08;;;;;;;28.70;11.15;;;20.20;99.90;;;;;;5092861;28;20052;-69
2023/07/02 09:21:49;;;;;;;24.98;10.93;;;19.70;99.90;;;;;;5093332;28;20028;-70
2023/07/02 09:26:55;;;;;;;25.40;10.73;;;21.10;99.90;;;;;;5111173;27;20417;-70
2023/07/02 09:29:30;;;;;;;21.25;10.60;;;22.00;1.00;;;;;;5111300;28;20042;-70
2023/07/02 09:31:59;;;;;;;24.60;10.43;;;22.30;1.00;;;;;;5110861;28;20027;-70
2023/07/02 09:34:31;;;;;;;24.88;10.60;;;22.50;1.00;;;;;;5111255;28;20028;-70
2023/07/02 09:36:57;;;;;;;21.48;10.10;;;23.30;1.00;;;;;;5111184;28;20106;-70
2023/07/02 09:39:29;;;;;;;20.92;10.77;;;22.70;1.00;;;;;;5111187;28;20024;-70
2023/07/02 09:41:57;;;;;;;23.13;10.90;;;22.30;1.00;;;;;;5110839;28;20027;-70
2023/07/02 09:44:33;;;;;;;21.40;9.98;;;21.80;94.40;;;;;;5110666;28;20031;-70
2023/07/02 09:47:06;;;;;;;27.73;11.50;;;21.20;95.40;;;;;;5110916;28;20431;-70
2023/07/02 09:49:33;;;;;;;20.67;9.43;;;20.80;99.90;;;;;;5110636;28;20024;-70
2023/07/02 09:52:02;;;;;;;20.58;9.90;;;21.50;99.90;;;;;;5110883;28;20039;-70
2023/07/02 09:54:28;;;;;;;20.50;9.30;;;21.80;40.00;;;;;;5110744;28;20024;-70
2023/07/02 09:56:55;;;;;;;20.45;10.25;;;21.40;99.90;;;;;;5110871;28;20024;-70
2023/07/02 09:59:20;;;;;;;21.33;9.35;;;21.00;84.40;;;;;;5110359;28;20393;-70
2023/07/02 10:01:47;;;;;;;19.83;9.18;;;20.40;18.00;;;;;;5110636;28;20027;-70
2023/07/02 10:04:13;;;;;;;20.05;9.55;;;20.30;93.70;;;;;;5110289;28;20030;-70
2023/07/02 10:06:50;;;;;;;19.13;9.68;;;19.90;89.60;;;;;;5110356;28;20028;-70
2023/07/02 10:09:16;;;;;;;21.20;10.18;;;19.80;99.90;;;;;;5110022;28;20027;-70
2023/07/02 10:11:42;;;;;;;18.88;8.50;;;20.80;99.90;;;;;;5110513;28;20115;-70
2023/07/02 10:14:08;;;;;;;19.00;9.15;;;21.30;10.60;;;;;;5110412;28;20536;-70
2023/07/02 10:16:33;;;;;;;21.02;8.80;;;21.60;14.20;;;;;;5110210;28;20038;-70
2023/07/02 10:19:14;;;;;;;15.65;8.75;;;23.00;99.90;;;;;;5110288;28;20365;-70
2023/07/02 10:21:39;;;;;;;13.43;8.10;;;23.60;99.90;;;;;;5110381;28;20028;-70
2023/07/02 10:24:11;;;;;;;17.02;8.55;;;22.90;99.90;;;;;;5109984;28;20508;-69
2023/07/02 10:26:36;;;;;;;21.30;8.65;;;21.90;99.90;;;;;;5109702;28;20498;-70
2023/07/02 10:29:02;;;;;;;19.70;8.90;;;21.80;1.00;;;;;;5109962;28;20076;-71
2023/07/02 10:31:28;;;;;;;16.83;8.43;;;22.60;1.00;;;;;;5109942;28;20077;-71
2023/07/02 10:33:54;;;;;;;15.88;8.73;;;23.50;1.00;;;;;;5109981;28;20114;-71
2023/07/02 10:36:21;;;;;;;14.88;8.55;;;23.80;25.20;;;;;;5107205;28;20065;-71
2023/07/02 10:38:48;;;;;;;24.52;9.25;;;22.90;1.00;;;;;;5096134;28;20035;-70
2023/07/02 10:41:25;;;;;;;20.33;8.93;;;22.20;1.00;;;;;;5096361;28;20024;-70
2023/07/02 10:43:50;;;;;;;19.83;8.98;;;23.00;1.00;;;;;;5096220;28;20166;-70
2023/07/02 10:46:21;;;;;;;20.65;8.55;;;23.50;1.00;;;;;;5095933;28;20115;-69
2023/07/02 10:49:01;;;;;;;18.95;8.57;;;23.30;1.00;;;;;;5096159;28;20034;-69
2023/07/02 10:51:28;;;;;;;18.67;9.00;;;22.20;1.00;;;;;;5095991;28;20021;-69
2023/07/02 10:54:04;;;;;;;18.55;8.68;;;21.40;99.90;;;;;;5095861;28;20024;-69
2023/07/02 10:56:30;;;;;;;15.23;8.15;;;21.20;99.90;;;;;;5095582;28;20028;-70
2023/07/02 10:58:56;;;;;;;15.77;7.85;;;21.50;99.90;;;;;;5095936;28;20119;-69
2023/07/02 11:01:30;;;;;;;15.88;8.48;;;21.50;99.90;;;;;;5095487;28;20024;-69
2023/07/02 11:03:58;;;;;;;16.30;7.75;;;20.90;1.00;;;;;;5095718;28;20035;-69
2023/07/02 11:06:24;;;;;;;17.58;7.50;;;20.80;1.00;;;;;;5095574;28;20044;-69
2023/07/02 11:08:49;;;;;;;18.15;8.65;;;20.70;99.90;;;;;;5095384;28;20026;-69
2023/07/02 11:11:15;;;;;;;15.48;7.75;;;21.20;1.00;;;;;;5095763;28;20111;-69
2023/07/02 11:13:46;;;;;;;15.15;8.05;;;21.60;1.00;;;;;;5095784;28;20028;-69
2023/07/02 11:16:29;;;;;;;17.08;9.15;;;21.90;1.00;;;;;;5095738;28;20057;-69
2023/07/02 11:19:09;;;;;;;17.70;8.07;;;22.20;38.80;;;;;;5095656;28;20424;-69
2023/07/02 11:21:36;;;;;;;18.08;8.45;;;22.40;1.00;;;;;;5095021;28;20055;-69
2023/07/02 11:24:05;;;;;;;14.43;8.25;;;22.40;1.00;;;;;;5095059;28;20020;-69
2023/07/02 11:26:39;;;;;;;18.42;9.05;;;21.90;1.00;;;;;;5094950;28;20040;-69
2023/07/02 11:29:10;;;;;;;15.55;8.75;;;21.80;1.00;;;;;;5094879;28;20039;-69
2023/07/02 11:31:36;;;;;;;16.60;8.50;;;21.40;1.00;;;;;;5095160;28;20020;-69
2023/07/02 11:34:10;;;;;;;19.33;7.95;;;21.10;1.00;;;;;;5094796;28;20035;-69
2023/07/02 11:36:36;;;;;;;16.98;8.82;;;21.20;99.90;;;;;;5094709;28;20440;-69
2023/07/02 11:39:02;;;;;;;15.48;7.82;;;21.10;1.00;;;;;;5094981;28;20028;-69
2023/07/02 11:41:36;;;;;;;14.82;8.05;;;21.20;1.00;;;;;;5095063;28;20020;-69
2023/07/02 11:44:02;;;;;;;18.52;8.05;;;21.40;1.00;;;;;;5094762;28;20066;-69
2023/07/02 11:46:27;;;;;;;15.43;8.23;;;22.00;1.00;;;;;;5094707;28;20063;-68
2023/07/02 11:48:53;;;;;;;18.65;8.27;;;21.90;1.00;;;;;;5093517;28;20055;-69
2023/07/02 11:51:18;;;;;;;16.60;8.15;;;22.10;1.00;;;;;;5094542;28;20451;-69
2023/07/02 11:53:44;;;;;;;18.20;8.05;;;22.50;1.00;;;;;;5094825;28;20016;-68
2023/07/02 11:56:09;;;;;;;16.20;8.07;;;22.70;1.00;;;;;;5094583;28;20032;-68
2023/07/02 11:58:35;;;;;;;17.63;8.30;;;22.50;99.90;;;;;;5094713;28;20390;-69
2023/07/02 12:01:00;;;;;;;18.10;7.70;;;22.50;1.00;;;;;;5094752;28;20028;-68
2023/07/02 12:03:26;;;;;;;16.50;7.93;;;22.00;1.00;;;;;;5094578;28;20035;-68
2023/07/02 12:05:52;;;;;;;17.17;7.38;;;21.60;1.00;;;;;;5094542;28;20032;-69
2023/07/02 12:08:17;;;;;;;16.67;7.72;;;21.80;67.30;;;;;;5094565;28;20031;-70
2023/07/02 12:10:43;;;;;;;15.52;7.65;;;21.90;1.00;;;;;;5094457;28;20035;-68
2023/07/02 12:13:08;;;;;;;15.20;7.28;;;22.00;1.00;;;;;;5093989;28;20035;-69
2023/07/02 12:15:34;;;;;;;13.52;6.95;;;21.80;1.00;;;;;;5094379;28;20035;-69
2023/07/02 12:17:59;;;;;;;13.55;7.13;;;22.00;1.00;;;;;;5094243;28;20055;-68
2023/07/02 12:20:25;;;;;;;12.48;7.28;;;22.30;1.00;;;;;;5094214;28;20500;-69
2023/07/02 12:22:50;;;;;;;16.42;7.97;;;22.30;1.00;;;;;;5094411;28;20028;-68
2023/07/02 12:25:16;;;;;;;16.80;7.68;;;22.00;1.00;;;;;;5093933;28;20044;-69
2023/07/02 12:27:41;;;;;;;15.80;7.22;;;22.20;1.00;;;;;;5094343;28;20477;-68
2023/07/02 12:30:08;;;;;;;18.65;8.20;;;22.30;1.00;;;;;;5094111;28;20063;-68
2023/07/02 12:32:34;;;;;;;16.25;7.82;;;22.50;1.00;;;;;;5094142;28;20016;-71
2023/07/02 12:34:59;;;;;;;13.32;7.05;;;21.70;1.00;;;;;;5094111;28;20020;-68